Pagina principale
METAR-TAF:

METAR-TAF

Aeroporti :

Souillac

Brive-la-Gaillarde, Francia

latitudine: 45-02-28N, longitudine: 001-28-59E, altezza: 311 m

Osservazione

Il bollettino è stato emesso 18 minuti fa, alle 19:00 UTC
Vento 3 kt da nord-ovest
Temperature 7°C
Umidità 87%
Pressione 1006 hPa
Visibilità 10 km o più

METAR: LFSL 211900Z AUTO 31003KT 9999 FEW046/// BKN066/// OVC080/// ///TCU 07/05 Q1006 TEMPO 4000 RA BECMG NSC

Ora: 20:18 (19:18 UTC)

Previsione

Il bollettino è stato emesso 2 ore e 18 minuti fa, alle 17:00 UTC
Previsione valida dal 21 alle 18 UTC al 22 alle 03 UTC
Vento 5 kt da sud
Visibilità 10 km o più
nessuna nube inferiore a 1500 m e nessun cumulonembo
Probabilità 40% :
Temporaneamente
dal 21 alle 18 UTC al 21 alle 20 UTC
Visibilità: 4000 m
Nuvoloso ad un'altezza di 3000 ft
pioggia

TAF: LFSL 211700Z 2118/2203 17005KT CAVOK PROB40 TEMPO 2118/2120 4000 RA BKN030

Osservazioni e previsioni meteorologiche di più di 4000 aeroporti (messaggi METAR e TAF).

Le stazioni disponibili sono rappresentate dai dischi gialli e rossi sulla carta.

Puntare il mouse per vedere il nome della stazione.

Clicca sopra per visualizzare le osservazioni e previsioni meteorologiche.

Per cambiare la mappa : fare clic sui pulsanti verdi con una croce nera per ingrandire, il pulsante verde con un trattino per diminuire, o sulla freccia verde per le mappe adiacenti.


METAR-TAF: